Terminal Aerodrome Forecast
Issued by NWS

Home | Current Version | Previous Version | Text Only | Print | Product List | Glossary On
Versions: 1 2 3 4 5 6 7 8 9 10 11 12 13 14 15 16 17 18
000
FTAK31 PAJN 281100
TAFAJN
TAF
PAJN 281138Z 2812/2912 VRB05KT P6SM BCFG FEW001
      TEMPO 2812/2816 1SM BR SCT001
     FM281800 09008G15KT P6SM SKC WS020/05030KT
     FM282200 10010KT P6SM SKC WS020/05035KT
     FM290500 11007KT P6SM SKC=

USA.gov is the U.S. government's official web portal to all federal, state and local government web resources and services.